METAR Data
IDs: Format: Raw Decoded Include TAF

Data at: 1233 UTC 26 Feb 2021

ETNN 261220Z 28009KT 9999 SCT025 SCT100 10/03 Q1034 BLU+BLU+